Time;durP1;ratioP1;P1;durP2;ratioP2;P2;SDS_P1;SDS_P2;PMS_P1;PMS_P2;Temp;Humidity;BMP_temperature;BMP_pressure;BME280_temperature;BME280_humidity;BME280_pressure;Samples;Min_cycle;Max_cycle;Signal;HPM_P1;HPM_P2
2023/11/14 00:00:43;;;;;;;0.30;0.20;;;;;;;12.54;90.30;99355.22;5034712;28;20543;-46
2023/11/14 00:03:10;;;;;;;0.30;0.20;;;;;;;12.39;91.25;99348.91;5034976;28;20471;-46
2023/11/14 00:05:37;;;;;;;0.30;0.20;;;;;;;12.48;91.06;99342.25;5028081;28;20501;-46
2023/11/14 00:08:04;;;;;;;0.30;0.20;;;;;;;12.34;90.57;99350.94;5034868;28;20447;-46
2023/11/14 00:10:31;;;;;;;0.30;0.20;;;;;;;12.39;91.33;99356.03;5034727;28;20476;-46
2023/11/14 00:12:58;;;;;;;0.30;0.20;;;;;;;12.41;91.04;99356.81;5034509;28;20471;-46
2023/11/14 00:15:26;;;;;;;0.30;0.20;;;;;;;12.51;90.32;99358.06;5034443;28;20876;-46
2023/11/14 00:17:53;;;;;;;0.30;0.20;;;;;;;12.46;90.28;99368.09;5034483;28;20911;-46
2023/11/14 00:20:20;;;;;;;0.30;0.20;;;;;;;12.43;90.41;99368.25;5034603;28;20429;-46
2023/11/14 00:22:46;;;;;;;0.30;0.20;;;;;;;12.43;90.91;99374.44;5034449;28;20442;-47
2023/11/14 00:25:13;;;;;;;0.30;0.20;;;;;;;12.34;91.01;99360.75;5034613;28;20426;-46
2023/11/14 00:27:39;;;;;;;0.30;0.20;;;;;;;12.54;90.53;99362.38;5034325;28;20517;-47
2023/11/14 00:30:07;;;;;;;0.40;0.40;;;;;;;12.37;90.92;99361.44;5027647;28;20430;-46
2023/11/14 00:32:34;;;;;;;0.30;0.20;;;;;;;12.40;90.50;99369.28;5021515;28;20448;-46
2023/11/14 00:35:00;;;;;;;0.30;0.20;;;;;;;12.44;90.34;99368.16;5033820;28;20459;-47
2023/11/14 00:37:28;;;;;;;0.30;0.20;;;;;;;12.42;90.73;99362.06;5031162;28;20491;-46
2023/11/14 00:39:55;;;;;;;0.30;0.20;;;;;;;12.32;90.95;99359.94;5034252;28;20463;-47
2023/11/14 00:42:21;;;;;;;0.30;0.20;;;;;;;12.14;91.64;99372.38;5033857;28;20551;-45
2023/11/14 00:44:48;;;;;;;0.30;0.20;;;;;;;12.20;91.85;99366.75;5034084;28;20904;-46
2023/11/14 00:47:15;;;;;;;0.30;0.20;;;;;;;12.31;91.83;99363.53;5034097;28;20447;-46
2023/11/14 00:49:41;;;;;;;0.30;0.20;;;;;;;12.34;91.29;99361.59;5034215;28;20470;-46
2023/11/14 00:52:08;;;;;;;0.30;0.20;;;;;;;12.30;91.29;99373.34;5033669;28;20532;-46
2023/11/14 00:54:34;;;;;;;0.30;0.20;;;;;;;12.12;91.26;99377.78;5033976;28;20447;-46
2023/11/14 00:57:02;;;;;;;0.30;0.20;;;;;;;12.14;91.61;99378.56;5033641;28;20548;-46
2023/11/14 00:59:29;;;;;;;0.30;0.20;;;;;;;12.09;92.30;99379.75;5034121;28;20550;-47
2023/11/14 01:01:58;;;;;;;0.30;0.20;;;;;;;12.15;91.87;99377.63;5033662;28;20467;-46
2023/11/14 01:04:25;;;;;;;0.30;0.20;;;;;;;12.12;92.22;99384.91;5026815;28;20449;-46
2023/11/14 01:06:52;;;;;;;0.30;0.20;;;;;;;12.23;91.33;99400.38;5033839;28;20443;-46
2023/11/14 01:09:18;;;;;;;0.30;0.20;;;;;;;12.11;91.43;99392.03;5034139;28;20460;-46
2023/11/14 01:11:46;;;;;;;0.30;0.20;;;;;;;12.24;91.53;99391.44;5033314;28;20463;-46
2023/11/14 01:14:13;;;;;;;0.30;0.20;;;;;;;12.14;91.30;99386.56;5033425;28;20813;-46
2023/11/14 01:16:39;;;;;;;0.30;0.30;;;;;;;12.16;90.50;99386.47;5033600;28;20523;-46
2023/11/14 01:19:06;;;;;;;0.30;0.20;;;;;;;12.00;91.44;99394.38;5033575;28;20505;-46
2023/11/14 01:21:32;;;;;;;0.30;0.20;;;;;;;12.09;91.04;99387.75;5033373;28;20483;-46
2023/11/14 01:23:59;;;;;;;0.30;0.20;;;;;;;11.93;91.44;99387.63;5033158;28;20475;-46
2023/11/14 01:26:33;;;;;;;0.30;0.20;;;;;;;12.02;91.10;99383.63;5033611;28;20513;-46
2023/11/14 01:29:00;;;;;;;0.30;0.20;;;;;;;11.98;90.45;99388.25;5031639;28;20423;-46
2023/11/14 01:31:28;;;;;;;0.30;0.20;;;;;;;12.01;90.87;99382.78;5019722;28;20535;-46
2023/11/14 01:33:55;;;;;;;0.30;0.20;;;;;;;12.00;90.61;99390.84;5027764;28;21007;-47
2023/11/14 01:36:24;;;;;;;0.30;0.20;;;;;;;12.06;90.12;99382.53;5032980;28;20495;-46
2023/11/14 01:38:50;;;;;;;0.30;0.20;;;;;;;11.90;90.86;99385.09;5029723;28;20461;-46
2023/11/14 01:41:17;;;;;;;0.30;0.20;;;;;;;12.08;90.16;99386.88;5033231;28;20550;-46
2023/11/14 01:43:45;;;;;;;0.63;0.63;;;;;;;12.00;89.83;99385.50;5032818;28;20555;-46
2023/11/14 01:46:15;;;;;;;0.30;0.20;;;;;;;12.08;89.90;99386.00;5033034;28;20907;-46
2023/11/14 01:48:51;;;;;;;0.30;0.20;;;;;;;12.06;89.79;99383.44;5029467;28;20647;-46
2023/11/14 01:51:19;;;;;;;0.30;0.20;;;;;;;12.07;89.96;99385.16;5024516;28;20999;-46
2023/11/14 01:53:48;;;;;;;0.30;0.20;;;;;;;12.24;88.86;99386.97;5033087;28;20502;-47
2023/11/14 01:56:16;;;;;;;0.30;0.20;;;;;;;12.08;88.76;99388.69;5032961;28;20469;-46
2023/11/14 01:58:43;;;;;;;0.30;0.20;;;;;;;11.92;89.13;99385.00;5032808;28;20497;-45
2023/11/14 02:01:13;;;;;;;0.30;0.20;;;;;;;12.16;89.24;99386.47;5032758;28;20487;-46
2023/11/14 02:03:40;;;;;;;0.30;0.20;;;;;;;12.12;88.46;99387.59;5006352;28;20426;-46
2023/11/14 02:06:08;;;;;;;0.30;0.20;;;;;;;11.99;88.52;99384.66;5026501;28;20451;-46
2023/11/14 02:08:35;;;;;;;0.30;0.20;;;;;;;12.04;88.46;99385.28;5032745;28;20456;-46
2023/11/14 02:11:01;;;;;;;0.30;0.20;;;;;;;12.06;88.73;99379.88;5032517;28;20482;-46
2023/11/14 02:13:28;;;;;;;0.30;0.20;;;;;;;12.09;88.52;99385.94;5032528;28;20452;-46
2023/11/14 02:15:54;;;;;;;0.30;0.20;;;;;;;11.92;89.08;99369.91;5032096;28;20790;-46
2023/11/14 02:18:21;;;;;;;0.30;0.20;;;;;;;12.11;88.54;99357.41;5032379;28;20447;-46
2023/11/14 02:20:47;;;;;;;0.30;0.20;;;;;;;11.97;88.34;99364.38;5032477;28;20452;-46
2023/11/14 02:23:16;;;;;;;0.30;0.20;;;;;;;11.76;89.36;99384.88;5031629;28;20554;-46
2023/11/14 02:25:44;;;;;;;0.30;0.20;;;;;;;11.91;89.34;99386.81;5032204;28;20486;-46
2023/11/14 02:28:10;;;;;;;0.30;0.20;;;;;;;11.99;88.76;99389.97;5032204;28;20418;-47
2023/11/14 02:30:37;;;;;;;0.30;0.20;;;;;;;12.03;88.23;99388.03;5023692;28;20501;-46
2023/11/14 02:33:08;;;;;;;0.40;0.30;;;;;;;11.78;88.83;99381.19;5021058;28;20507;-46
2023/11/14 02:35:34;;;;;;;0.30;0.20;;;;;;;11.66;89.67;99388.94;5031179;28;20982;-46
2023/11/14 02:38:01;;;;;;;0.30;0.20;;;;;;;11.78;89.88;99388.31;5028741;28;20504;-46
2023/11/14 02:40:28;;;;;;;0.30;0.20;;;;;;;11.95;89.33;99396.41;5031928;28;21104;-46
2023/11/14 02:42:54;;;;;;;0.30;0.20;;;;;;;12.01;88.45;99409.41;5032070;28;20478;-48
2023/11/14 02:45:21;;;;;;;0.30;0.20;;;;;;;11.93;88.88;99424.91;5032354;28;20450;-46
2023/11/14 02:47:48;;;;;;;0.30;0.20;;;;;;;11.90;88.97;99440.16;5031901;28;20909;-46
2023/11/14 02:50:46;;;;;;;0.30;0.20;;;;;;;11.83;89.06;99451.09;5031953;28;20437;-46
2023/11/14 02:53:12;;;;;;;0.30;0.20;;;;;;;11.78;89.11;99473.50;5044388;22;20517;-48
2023/11/14 02:55:43;;;;;;;0.30;0.20;;;;;;;11.74;89.75;99474.59;5019822;28;20443;-49
2023/11/14 02:58:11;;;;;;;0.30;0.20;;;;;;;11.74;89.74;99477.25;5031548;28;20908;-48
2023/11/14 03:00:41;;;;;;;0.30;0.20;;;;;;;11.63;90.33;99477.75;5031812;28;20539;-48
2023/11/14 03:03:12;;;;;;;0.30;0.20;;;;;;;11.80;89.37;99498.31;5031520;28;20475;-48
2023/11/14 03:05:39;;;;;;;0.30;0.20;;;;;;;11.83;89.43;99495.53;5024483;28;20447;-48
2023/11/14 03:08:05;;;;;;;0.30;0.20;;;;;;;11.66;90.61;99490.09;5031392;28;20430;-48
2023/11/14 03:10:32;;;;;;;0.30;0.20;;;;;;;11.86;89.54;99488.25;5031725;28;20530;-48
2023/11/14 03:13:00;;;;;;;0.30;0.20;;;;;;;11.96;89.37;99478.03;5031506;28;20557;-48
2023/11/14 03:15:26;;;;;;;0.30;0.20;;;;;;;11.91;89.61;99488.00;5031612;28;20454;-49
2023/11/14 03:17:56;;;;;;;0.30;0.20;;;;;;;12.03;89.77;99499.91;5031358;28;20578;-48
2023/11/14 03:20:23;;;;;;;0.30;0.20;;;;;;;12.18;89.32;99508.97;5031579;28;20451;-49
2023/11/14 03:22:59;;;;;;;0.30;0.20;;;;;;;12.19;88.69;99514.22;5031659;28;20467;-48
2023/11/14 03:25:26;;;;;;;0.30;0.20;;;;;;;12.19;88.98;99503.56;5031578;28;20431;-49
2023/11/14 03:27:52;;;;;;;0.30;0.20;;;;;;;12.18;89.44;99508.97;5031203;28;20460;-48
2023/11/14 03:30:19;;;;;;;0.30;0.20;;;;;;;12.18;89.35;99514.28;5025541;28;20531;-48
2023/11/14 03:32:45;;;;;;;0.30;0.20;;;;;;;12.30;89.06;99519.03;5017500;28;20907;-48
2023/11/14 03:35:12;;;;;;;0.30;0.20;;;;;;;12.22;89.81;99531.88;5033841;28;20458;-48
2023/11/14 03:37:39;;;;;;;0.30;0.20;;;;;;;12.19;89.74;99527.53;5032016;28;20995;-48
2023/11/14 03:40:06;;;;;;;0.30;0.20;;;;;;;12.28;89.24;99531.56;5035327;28;20843;-49
2023/11/14 03:42:33;;;;;;;0.30;0.20;;;;;;;12.32;89.66;99533.16;5035278;28;20472;-48
2023/11/14 03:44:59;;;;;;;0.30;0.20;;;;;;;12.30;89.76;99527.88;5017536;28;20509;-49
2023/11/14 03:47:26;;;;;;;0.30;0.20;;;;;;;12.26;89.88;99534.31;5035107;28;20451;-48
2023/11/14 03:49:52;;;;;;;0.30;0.20;;;;;;;12.34;90.53;99534.81;5034812;28;20534;-49
2023/11/14 03:52:19;;;;;;;0.30;0.20;;;;;;;12.58;89.22;99530.09;5035007;28;20453;-48
2023/11/14 03:54:45;;;;;;;0.30;0.20;;;;;;;12.53;88.90;99532.13;5035009;28;20422;-48
2023/11/14 03:57:12;;;;;;;0.30;0.20;;;;;;;12.54;88.79;99536.50;5034902;28;21100;-48
2023/11/14 03:59:38;;;;;;;0.30;0.20;;;;;;;12.44;89.70;99527.22;5034625;28;20960;-48
2023/11/14 04:02:05;;;;;;;0.30;0.20;;;;;;;12.37;90.30;99536.47;5034749;28;20554;-48
2023/11/14 04:04:31;;;;;;;0.30;0.20;;;;;;;12.34;89.73;99537.50;5027199;28;20467;-48
2023/11/14 04:06:58;;;;;;;0.30;0.20;;;;;;;12.52;90.02;99533.06;5034630;28;20426;-48
2023/11/14 04:09:24;;;;;;;0.30;0.20;;;;;;;12.48;89.99;99534.16;5034632;28;20432;-48
2023/11/14 04:11:51;;;;;;;0.30;0.20;;;;;;;12.50;90.76;99528.75;5034584;28;20453;-49
2023/11/14 04:14:18;;;;;;;0.30;0.20;;;;;;;12.42;89.59;99527.31;5034389;28;20918;-48
2023/11/14 04:16:44;;;;;;;0.30;0.20;;;;;;;12.38;90.69;99530.19;5034311;28;20464;-49
2023/11/14 04:19:11;;;;;;;0.30;0.20;;;;;;;12.43;89.95;99525.50;5034333;28;20456;-49
2023/11/14 04:21:38;;;;;;;0.30;0.20;;;;;;;12.16;91.41;99520.56;5034497;28;20450;-48
2023/11/14 04:24:05;;;;;;;0.30;0.20;;;;;;;12.14;92.28;99524.22;5034515;28;20535;-48
2023/11/14 04:26:32;;;;;;;0.30;0.20;;;;;;;12.34;92.23;99523.31;5034406;28;20521;-48
2023/11/14 04:28:58;;;;;;;0.30;0.20;;;;;;;12.12;92.15;99523.44;5032735;28;20451;-48
2023/11/14 04:31:24;;;;;;;0.30;0.20;;;;;;;12.01;92.73;99501.78;5020869;28;20452;-49
2023/11/14 04:33:51;;;;;;;0.30;0.20;;;;;;;12.04;93.30;99505.16;5028526;28;20516;-48
2023/11/14 04:36:19;;;;;;;0.30;0.20;;;;;;;11.90;93.69;99507.59;5034398;28;20433;-48
2023/11/14 04:38:46;;;;;;;0.30;0.20;;;;;;;11.98;93.40;99509.91;5030795;28;20860;-48
2023/11/14 04:41:18;;;;;;;0.30;0.20;;;;;;;11.89;93.54;99510.34;5034114;28;20936;-48
2023/11/14 04:43:45;;;;;;;0.30;0.20;;;;;;;12.03;93.74;99499.91;5033865;28;21054;-49
2023/11/14 04:46:12;;;;;;;0.30;0.20;;;;;;;12.15;93.04;99494.00;5033254;28;20430;-48
2023/11/14 04:48:39;;;;;;;0.30;0.20;;;;;;;11.92;93.77;99495.06;5034076;28;20819;-48
2023/11/14 04:51:05;;;;;;;0.30;0.20;;;;;;;12.04;93.93;99509.63;5034220;28;20538;-48
2023/11/14 04:53:32;;;;;;;0.30;0.20;;;;;;;12.11;93.43;99506.59;5033571;28;20511;-49
2023/11/14 04:55:58;;;;;;;0.30;0.20;;;;;;;12.05;93.72;99514.88;5033894;28;20543;-49
2023/11/14 04:58:24;;;;;;;0.30;0.20;;;;;;;12.02;94.49;99516.81;5033684;28;20494;-48
2023/11/14 05:00:51;;;;;;;0.30;0.20;;;;;;;12.06;93.76;99513.97;5033823;28;20543;-49
2023/11/14 05:03:18;;;;;;;0.30;0.20;;;;;;;11.96;94.08;99510.00;5033602;28;20472;-48
2023/11/14 05:05:45;;;;;;;0.30;0.20;;;;;;;11.97;94.04;99509.06;5026770;28;20422;-48
2023/11/14 05:08:12;;;;;;;0.30;0.20;;;;;;;11.93;93.95;99510.13;5033582;28;20522;-48
2023/11/14 05:10:38;;;;;;;0.30;0.20;;;;;;;12.19;94.12;99511.53;5033586;28;20460;-48
2023/11/14 05:13:05;;;;;;;0.30;0.20;;;;;;;12.03;94.11;99498.09;5033354;28;20495;-48
2023/11/14 05:15:31;;;;;;;0.30;0.20;;;;;;;12.04;94.87;99506.94;5022682;28;20476;-49
2023/11/14 05:17:57;;;;;;;0.30;0.20;;;;;;;12.06;94.83;99510.41;5031396;28;20512;-49
2023/11/14 05:20:24;;;;;;;0.30;0.20;;;;;;;12.10;94.37;99498.69;5033357;28;20430;-48
2023/11/14 05:22:51;;;;;;;0.30;0.20;;;;;;;12.12;94.61;99505.66;5033237;28;20446;-48
2023/11/14 05:25:17;;;;;;;0.30;0.20;;;;;;;12.07;94.76;99502.38;5033368;28;20486;-48
2023/11/14 05:27:44;;;;;;;0.30;0.20;;;;;;;12.23;94.69;99505.16;5033077;28;20475;-48
2023/11/14 05:30:12;;;;;;;0.30;0.20;;;;;;;12.26;94.02;99514.78;5026655;28;20513;-48
2023/11/14 05:32:38;;;;;;;0.30;0.20;;;;;;;12.39;93.98;99513.28;5019945;28;20478;-48
2023/11/14 05:35:05;;;;;;;0.30;0.20;;;;;;;12.40;93.38;99501.66;5032267;28;20451;-48
2023/11/14 05:37:32;;;;;;;0.30;0.20;;;;;;;12.48;93.22;99520.84;5029588;28;20466;-48
2023/11/14 05:39:58;;;;;;;0.30;0.20;;;;;;;12.63;93.12;99527.22;5033065;28;20863;-48
2023/11/14 05:42:25;;;;;;;0.30;0.20;;;;;;;12.46;94.15;99526.22;5032716;28;20521;-48
2023/11/14 05:44:52;;;;;;;0.30;0.20;;;;;;;12.43;94.12;99523.69;5033118;28;20542;-48
2023/11/14 05:47:19;;;;;;;0.30;0.20;;;;;;;12.58;93.92;99527.41;5032921;28;20517;-48
2023/11/14 05:49:46;;;;;;;0.30;0.20;;;;;;;12.49;93.69;99524.34;5032864;28;20459;-48
2023/11/14 05:52:12;;;;;;;0.30;0.20;;;;;;;12.64;93.41;99516.47;5032409;28;20494;-48
2023/11/14 05:54:39;;;;;;;0.30;0.20;;;;;;;12.66;92.93;99517.25;5032845;28;20453;-48
2023/11/14 05:57:05;;;;;;;0.30;0.20;;;;;;;12.60;93.97;99538.88;5032311;28;20547;-48
2023/11/14 05:59:32;;;;;;;0.30;0.20;;;;;;;12.85;93.45;99543.00;5032939;28;20454;-48
2023/11/14 06:01:59;;;;;;;0.30;0.20;;;;;;;12.63;93.33;99552.06;5032546;28;20475;-48
2023/11/14 06:04:25;;;;;;;0.30;0.20;;;;;;;12.68;93.82;99544.69;5025538;28;20456;-48
2023/11/14 06:06:57;;;;;;;0.30;0.20;;;;;;;12.96;93.34;99544.19;5032208;28;20957;-49
2023/11/14 06:09:23;;;;;;;0.60;0.60;;;;;;;12.96;92.87;99532.66;5032415;28;20505;-48
2023/11/14 06:11:50;;;;;;;0.30;0.20;;;;;;;12.79;93.37;99497.97;5032430;28;20476;-48
2023/11/14 06:14:16;;;;;;;0.30;0.20;;;;;;;12.86;93.58;99515.38;5032316;28;20923;-48
2023/11/14 06:16:42;;;;;;;0.30;0.20;;;;;;;12.81;93.48;99522.75;5032599;28;20426;-48
2023/11/14 06:19:09;;;;;;;0.30;0.20;;;;;;;12.72;93.70;99543.59;5032192;28;20498;-48
2023/11/14 06:21:36;;;;;;;0.30;0.20;;;;;;;12.78;94.10;99537.13;5005812;28;20519;-48
2023/11/14 06:24:02;;;;;;;0.30;0.20;;;;;;;12.90;93.33;99539.19;5032246;28;20621;-48
2023/11/14 06:26:30;;;;;;;0.30;0.20;;;;;;;13.03;93.26;99528.75;5000109;28;20459;-48
2023/11/14 06:28:56;;;;;;;0.30;0.20;;;;;;;13.08;93.05;99523.16;5011416;28;20458;-48
2023/11/14 06:31:24;;;;;;;0.30;0.20;;;;;;;13.04;93.22;99527.81;5012363;28;20456;-48
2023/11/14 06:33:50;;;;;;;0.30;0.20;;;;;;;12.97;93.43;99532.56;5001695;28;20485;-48
2023/11/14 06:36:17;;;;;;;0.30;0.20;;;;;;;13.20;93.24;99549.25;5012358;28;20503;-49
2023/11/14 06:38:43;;;;;;;0.30;0.20;;;;;;;13.02;93.37;99567.03;5014230;28;20904;-48
2023/11/14 06:41:10;;;;;;;0.30;0.20;;;;;;;13.05;92.94;99566.88;5014762;28;20534;-48
2023/11/14 06:43:37;;;;;;;0.30;0.20;;;;;;;13.10;92.46;99559.50;5014545;28;20471;-48
2023/11/14 06:46:03;;;;;;;0.30;0.20;;;;;;;13.06;92.83;99560.59;5013628;28;20833;-48
2023/11/14 06:48:30;;;;;;;0.30;0.20;;;;;;;13.18;92.87;99584.03;5017906;28;20472;-48
2023/11/14 06:50:57;;;;;;;0.30;0.20;;;;;;;13.09;92.20;99578.25;5017686;28;20535;-48
2023/11/14 06:53:23;;;;;;;0.30;0.20;;;;;;;13.23;91.84;99555.28;5011881;28;20490;-48
2023/11/14 06:55:50;;;;;;;0.30;0.20;;;;;;;13.17;92.26;99554.72;5012272;28;20448;-48
2023/11/14 06:58:16;;;;;;;0.30;0.20;;;;;;;12.94;93.07;99563.88;5027964;28;20481;-48
2023/11/14 07:00:43;;;;;;;0.30;0.20;;;;;;;12.86;93.43;99568.72;5014138;28;20919;-49
2023/11/14 07:03:09;;;;;;;0.30;0.20;;;;;;;13.12;93.72;99578.09;5014888;28;20442;-48
2023/11/14 07:05:36;;;;;;;0.30;0.20;;;;;;;13.10;93.18;99572.84;5013140;28;20798;-48
2023/11/14 07:08:03;;;;;;;0.30;0.20;;;;;;;12.90;93.41;99559.66;5015326;28;20509;-49
2023/11/14 07:10:32;;;;;;;0.30;0.20;;;;;;;12.91;93.56;99548.91;5021601;28;20956;-48
2023/11/14 07:12:59;;;;;;;0.30;0.20;;;;;;;12.94;93.56;99553.22;5031680;28;20482;-48
2023/11/14 07:15:27;;;;;;;0.30;0.20;;;;;;;12.88;94.12;99548.16;5031800;28;20480;-48
2023/11/14 07:17:54;;;;;;;0.30;0.20;;;;;;;12.87;94.14;99539.31;5031638;28;20549;-49
2023/11/14 07:20:22;;;;;;;0.30;0.20;;;;;;;12.98;93.79;99550.31;5031385;28;20430;-49
2023/11/14 07:22:49;;;;;;;0.30;0.20;;;;;;;13.17;93.62;99539.59;5031401;28;20476;-48
2023/11/14 07:25:16;;;;;;;0.30;0.20;;;;;;;13.07;93.53;99542.78;5031578;28;20455;-49
2023/11/14 07:27:46;;;;;;;0.30;0.20;;;;;;;13.14;93.93;99577.06;5025666;28;20445;-49
2023/11/14 07:30:15;;;;;;;0.30;0.20;;;;;;;13.12;93.94;99586.09;5016810;28;20567;-49
2023/11/14 07:32:41;;;;;;;0.30;0.20;;;;;;;13.08;94.33;99596.06;5012846;28;20475;-48
2023/11/14 07:35:10;;;;;;;0.30;0.20;;;;;;;13.13;93.84;99594.03;5014167;28;20423;-48
2023/11/14 07:37:37;;;;;;;0.30;0.20;;;;;;;13.21;93.75;99589.22;5028186;28;20456;-48
2023/11/14 07:40:06;;;;;;;0.30;0.20;;;;;;;13.15;93.46;99617.97;5031601;28;20449;-49
2023/11/14 07:42:32;;;;;;;0.30;0.20;;;;;;;13.35;93.44;99628.56;5028281;28;20472;-48
2023/11/14 07:44:59;;;;;;;0.30;0.20;;;;;;;13.32;92.34;99624.25;5024545;28;20527;-49
2023/11/14 07:47:25;;;;;;;0.30;0.20;;;;;;;13.40;92.71;99626.50;5021256;28;20978;-49
2023/11/14 07:49:53;;;;;;;0.30;0.20;;;;;;;13.60;92.42;99634.38;5031606;28;20426;-48
2023/11/14 07:52:20;;;;;;;0.30;0.20;;;;;;;13.38;92.16;99632.88;5030520;28;20899;-49
2023/11/14 07:54:47;;;;;;;0.30;0.20;;;;;;;13.33;92.61;99652.66;5001690;28;20461;-49
2023/11/14 07:57:13;;;;;;;0.30;0.20;;;;;;;13.27;92.42;99646.75;5030984;28;20885;-48
2023/11/14 07:59:40;;;;;;;0.30;0.20;;;;;;;13.43;92.62;99645.06;5030950;28;20549;-48
2023/11/14 08:02:06;;;;;;;0.30;0.20;;;;;;;13.48;92.05;99635.00;5031098;28;20475;-48
2023/11/14 08:04:32;;;;;;;0.30;0.20;;;;;;;13.50;91.87;99619.75;5023811;28;20802;-48
2023/11/14 08:07:00;;;;;;;0.30;0.20;;;;;;;13.35;91.64;99601.84;5031524;28;20448;-48
2023/11/14 08:09:28;;;;;;;0.30;0.20;;;;;;;13.62;91.83;99604.91;5030977;28;20432;-48
2023/11/14 08:11:54;;;;;;;0.30;0.20;;;;;;;13.59;91.31;99597.06;5031316;28;20446;-49
2023/11/14 08:14:21;;;;;;;0.30;0.20;;;;;;;13.45;91.57;99568.41;5031119;28;20458;-48
2023/11/14 08:16:47;;;;;;;0.30;0.20;;;;;;;13.64;91.18;99560.28;5030952;28;20531;-48
2023/11/14 08:19:14;;;;;;;0.30;0.20;;;;;;;13.57;91.48;99550.91;5031183;28;20491;-49
2023/11/14 08:21:41;;;;;;;0.30;0.20;;;;;;;13.67;91.76;99549.44;5032870;28;20521;-48
2023/11/14 08:24:07;;;;;;;0.30;0.20;;;;;;;13.72;91.42;99534.06;5034614;28;20451;-48
2023/11/14 08:26:34;;;;;;;0.30;0.20;;;;;;;13.61;91.66;99539.09;5034645;28;20461;-49
2023/11/14 08:29:00;;;;;;;0.30;0.20;;;;;;;13.75;91.09;99554.38;5032622;28;20925;-48
2023/11/14 08:31:31;;;;;;;0.30;0.20;;;;;;;13.77;91.03;99557.84;5021221;28;20535;-48
2023/11/14 08:33:58;;;;;;;0.30;0.20;;;;;;;13.75;91.38;99573.94;5029130;28;20431;-48
2023/11/14 08:36:24;;;;;;;0.30;0.20;;;;;;;13.92;90.35;99581.91;5034210;28;20422;-49
2023/11/14 08:38:51;;;;;;;0.30;0.20;;;;;;;13.81;91.04;99588.78;5030887;28;20491;-48
2023/11/14 08:41:17;;;;;;;0.30;0.20;;;;;;;13.83;90.79;99587.75;5034092;28;20858;-48
2023/11/14 08:43:45;;;;;;;0.30;0.20;;;;;;;13.82;90.50;99595.84;5033738;28;20481;-48
2023/11/14 08:46:12;;;;;;;0.30;0.20;;;;;;;13.80;90.59;99587.91;5034382;28;20448;-49
2023/11/14 08:48:38;;;;;;;0.30;0.20;;;;;;;13.89;90.37;99587.44;5033945;28;20418;-48
2023/11/14 08:51:05;;;;;;;0.30;0.20;;;;;;;13.93;90.30;99597.00;5034112;28;20486;-48
2023/11/14 08:53:31;;;;;;;0.30;0.20;;;;;;;14.08;89.67;99597.97;5033441;28;20520;-48
2023/11/14 08:55:58;;;;;;;0.30;0.20;;;;;;;14.04;89.81;99600.91;5033910;28;20426;-48
2023/11/14 08:58:25;;;;;;;0.30;0.20;;;;;;;13.84;90.37;99589.50;5034079;28;20491;-47
2023/11/14 09:00:54;;;;;;;0.30;0.20;;;;;;;13.87;90.28;99588.47;5033995;28;20456;-47
2023/11/14 09:03:22;;;;;;;0.30;0.20;;;;;;;13.70;90.69;99577.78;5033715;28;20567;-49
2023/11/14 09:05:48;;;;;;;0.30;0.20;;;;;;;13.68;90.96;99572.53;5026318;28;20437;-48
2023/11/14 09:08:15;;;;;;;0.30;0.20;;;;;;;13.84;91.01;99591.28;5033557;28;20505;-47
2023/11/14 09:10:44;;;;;;;0.30;0.20;;;;;;;13.65;91.43;99620.78;5033468;28;20423;-48
2023/11/14 09:13:15;;;;;;;0.30;0.20;;;;;;;13.82;91.26;99602.03;5033613;28;20445;-48
2023/11/14 09:15:42;;;;;;;0.47;0.30;;;;;;;13.90;90.68;99586.47;5033754;28;20480;-47
2023/11/14 09:18:10;;;;;;;0.30;0.20;;;;;;;13.83;91.03;99585.06;5033877;28;21019;-47
2023/11/14 09:20:37;;;;;;;0.30;0.20;;;;;;;13.91;90.99;99569.50;5033393;28;20943;-48
2023/11/14 09:23:04;;;;;;;0.30;0.20;;;;;;;13.78;91.20;99589.81;5033183;28;20550;-47
2023/11/14 09:25:31;;;;;;;0.30;0.20;;;;;;;13.75;91.58;99583.78;5033343;28;20455;-48
2023/11/14 09:27:59;;;;;;;0.30;0.20;;;;;;;13.85;91.16;99607.25;5033438;28;20510;-47
2023/11/14 09:30:27;;;;;;;0.30;0.20;;;;;;;13.85;91.59;99601.91;5018620;28;20507;-48
2023/11/14 09:32:53;;;;;;;0.30;0.20;;;;;;;13.97;91.60;99603.03;5012040;28;21296;-47
2023/11/14 09:35:20;;;;;;;0.30;0.20;;;;;;;13.94;91.36;99597.84;5006815;28;20460;-47
2023/11/14 09:37:47;;;;;;;0.30;0.20;;;;;;;14.01;91.69;99590.41;5010493;28;20472;-47
2023/11/14 09:40:20;;;;;;;0.30;0.20;;;;;;;14.10;91.31;99582.72;5027551;28;20470;-47
2023/11/14 09:42:50;;;;;;;0.30;0.20;;;;;;;14.06;90.62;99599.00;5033284;28;20493;-47
2023/11/14 09:45:22;;;;;;;0.30;0.20;;;;;;;14.16;90.62;99594.91;5017409;28;20804;-47
2023/11/14 09:47:49;;;;;;;0.30;0.20;;;;;;;14.03;91.28;99588.50;5030844;28;20448;-48
2023/11/14 09:50:17;;;;;;;0.30;0.20;;;;;;;14.07;91.13;99587.38;5009326;28;20480;-48
2023/11/14 09:52:45;;;;;;;0.30;0.20;;;;;;;14.13;90.28;99576.38;5013192;28;20911;-47
2023/11/14 09:55:12;;;;;;;0.30;0.20;;;;;;;14.10;90.49;99590.75;4996128;28;20457;-47
2023/11/14 09:57:38;;;;;;;0.30;0.20;;;;;;;14.18;89.81;99593.00;5012769;28;20431;-47
2023/11/14 10:00:11;;;;;;;0.30;0.20;;;;;;;14.11;90.18;99618.31;5005874;28;20499;-47
2023/11/14 10:02:40;;;;;;;0.30;0.20;;;;;;;14.14;89.85;99629.75;5013047;28;20479;-48
2023/11/14 10:05:10;;;;;;;0.30;0.20;;;;;;;14.13;89.87;99637.84;5029711;28;20480;-48
2023/11/14 10:07:43;;;;;;;0.30;0.20;;;;;;;14.04;90.57;99632.97;5032961;28;20534;-47
2023/11/14 10:10:11;;;;;;;0.30;0.20;;;;;;;14.11;90.50;99645.91;5032581;28;20447;-47
2023/11/14 10:12:38;;;;;;;0.30;0.20;;;;;;;14.16;90.60;99624.31;5032371;28;20880;-47
2023/11/14 10:15:07;;;;;;;0.30;0.20;;;;;;;14.08;89.92;99614.03;5028242;28;20452;-47
2023/11/14 10:17:45;;;;;;;0.30;0.20;;;;;;;14.18;90.20;99607.25;5032115;28;20456;-48
2023/11/14 10:20:14;;;;;;;0.30;0.20;;;;;;;14.28;89.78;99607.59;5023382;28;20458;-48
2023/11/14 10:22:49;;;;;;;0.30;0.20;;;;;;;14.13;90.00;99608.44;5032151;28;20974;-46
2023/11/14 10:25:26;;;;;;;0.30;0.20;;;;;;;14.15;90.15;99590.50;5032316;28;20523;-47
2023/11/14 10:27:59;;;;;;;0.40;0.37;;;;;;;14.22;90.01;99591.88;5031896;28;20478;-47
2023/11/14 10:30:41;;;;;;;0.30;0.20;;;;;;;14.16;89.83;99589.56;5025302;28;20489;-48
2023/11/14 10:33:09;;;;;;;0.30;0.20;;;;;;;14.15;89.87;99587.84;5012202;28;20451;-48
2023/11/14 10:35:36;;;;;;;0.30;0.20;;;;;;;14.26;89.46;99573.88;5028950;28;20435;-47
2023/11/14 10:38:24;;;;;;;0.30;0.20;;;;;;;14.27;89.71;99563.13;5029075;28;20430;-48
2023/11/14 10:40:54;;;;;;;0.30;0.20;;;;;;;14.43;89.71;99553.28;5032198;28;20422;-48
2023/11/14 10:43:29;;;;;;;0.30;0.20;;;;;;;14.33;89.25;99537.84;5025352;28;20451;-47
2023/11/14 10:45:58;;;;;;;0.30;0.20;;;;;;;14.41;89.11;99536.47;5007818;28;20436;-47
2023/11/14 10:48:26;;;;;;;0.33;0.23;;;;;;;14.45;88.73;99532.69;5031773;28;20422;-48
2023/11/14 10:50:53;;;;;;;0.30;0.20;;;;;;;14.49;89.32;99533.38;5031850;28;20509;-48
2023/11/14 10:53:20;;;;;;;0.30;0.20;;;;;;;14.38;89.21;99541.97;5028892;28;20511;-47
2023/11/14 10:55:47;;;;;;;0.30;0.20;;;;;;;14.40;89.22;99534.75;5032026;28;20433;-48
2023/11/14 10:58:18;;;;;;;0.30;0.20;;;;;;;14.34;89.55;99520.84;5020595;28;20510;-47
2023/11/14 11:00:46;;;;;;;0.30;0.20;;;;;;;14.50;88.92;99513.69;5011914;28;20423;-47
2023/11/14 11:03:13;;;;;;;0.30;0.20;;;;;;;14.36;89.48;99510.91;5020695;28;20479;-48
2023/11/14 11:05:40;;;;;;;0.30;0.20;;;;;;;14.42;89.02;99500.75;5024527;28;20795;-48
2023/11/14 11:08:08;;;;;;;0.30;0.20;;;;;;;14.64;88.55;99503.06;5031581;28;20514;-48
2023/11/14 11:10:37;;;;;;;0.30;0.20;;;;;;;14.54;88.55;99496.56;5031742;28;20430;-48
2023/11/14 11:13:10;;;;;;;0.40;0.40;;;;;;;14.70;88.51;99499.19;5031434;28;20479;-47
2023/11/14 11:15:50;;;;;;;0.30;0.20;;;;;;;14.67;89.10;99480.66;5031538;28;20978;-49
2023/11/14 11:18:36;;;;;;;0.30;0.20;;;;;;;14.55;88.45;99490.25;5025118;28;20449;-48
2023/11/14 11:21:08;;;;;;;0.30;0.20;;;;;;;14.47;88.53;99509.41;5031311;28;20813;-48
2023/11/14 11:24:05;;;;;;;0.30;0.20;;;;;;;14.42;88.29;99510.59;5021973;28;20475;-48
2023/11/14 11:26:31;;;;;;;0.30;0.20;;;;;;;14.22;89.44;99501.00;4981335;28;20451;-48
2023/11/14 11:28:59;;;;;;;0.30;0.20;;;;;;;14.35;88.97;99486.00;5030107;28;20455;-48
2023/11/14 11:31:26;;;;;;;0.30;0.20;;;;;;;14.24;89.35;99486.59;5018103;28;20459;-49
2023/11/14 11:33:54;;;;;;;0.30;0.20;;;;;;;14.33;89.31;99492.38;5025179;28;20488;-48
2023/11/14 11:36:20;;;;;;;0.30;0.20;;;;;;;14.62;88.61;99502.31;5028264;28;20460;-48